sensor_id;sensor_type;location;lat;lon;timestamp;P1;durP1;ratioP1;P2;durP2;ratioP2
20846;SDS011;10584;50.854;12.902;2023-04-03T00:04:20;7.07;;;1.70;;
20846;SDS011;10584;50.854;12.902;2023-04-03T00:09:42;5.70;;;1.60;;
20846;SDS011;10584;50.854;12.902;2023-04-03T00:15:03;6.57;;;1.57;;
20846;SDS011;10584;50.854;12.902;2023-04-03T00:20:25;7.43;;;1.87;;
20846;SDS011;10584;50.854;12.902;2023-04-03T00:25:47;6.10;;;1.70;;
20846;SDS011;10584;50.854;12.902;2023-04-03T00:31:09;6.27;;;1.73;;
20846;SDS011;10584;50.854;12.902;2023-04-03T00:36:30;7.00;;;1.67;;
20846;SDS011;10584;50.854;12.902;2023-04-03T00:41:52;5.83;;;1.63;;
20846;SDS011;10584;50.854;12.902;2023-04-03T00:47:14;5.40;;;1.73;;
20846;SDS011;10584;50.854;12.902;2023-04-03T00:52:37;6.40;;;1.73;;
20846;SDS011;10584;50.854;12.902;2023-04-03T00:58:00;12.13;;;1.90;;
20846;SDS011;10584;50.854;12.902;2023-04-03T01:03:22;9.63;;;1.47;;
20846;SDS011;10584;50.854;12.902;2023-04-03T01:08:48;5.63;;;1.60;;
20846;SDS011;10584;50.854;12.902;2023-04-03T01:14:10;2.50;;;1.17;;
20846;SDS011;10584;50.854;12.902;2023-04-03T01:19:32;4.63;;;1.47;;
20846;SDS011;10584;50.854;12.902;2023-04-03T01:24:57;3.93;;;1.60;;
20846;SDS011;10584;50.854;12.902;2023-04-03T01:30:21;3.27;;;1.40;;
20846;SDS011;10584;50.854;12.902;2023-04-03T01:35:48;7.73;;;1.70;;
20846;SDS011;10584;50.854;12.902;2023-04-03T01:41:11;5.20;;;1.67;;
20846;SDS011;10584;50.854;12.902;2023-04-03T01:46:33;5.70;;;1.80;;
20846;SDS011;10584;50.854;12.902;2023-04-03T01:51:55;4.60;;;1.60;;
20846;SDS011;10584;50.854;12.902;2023-04-03T01:57:16;8.50;;;1.70;;
20846;SDS011;10584;50.854;12.902;2023-04-03T02:02:38;6.40;;;1.40;;
20846;SDS011;10584;50.854;12.902;2023-04-03T02:08:00;8.03;;;1.80;;
20846;SDS011;10584;50.854;12.902;2023-04-03T02:13:21;4.80;;;1.70;;
20846;SDS011;10584;50.854;12.902;2023-04-03T02:18:42;6.03;;;1.70;;
20846;SDS011;10584;50.854;12.902;2023-04-03T02:24:04;7.73;;;1.60;;
20846;SDS011;10584;50.854;12.902;2023-04-03T02:29:27;5.00;;;1.50;;
20846;SDS011;10584;50.854;12.902;2023-04-03T02:34:48;5.17;;;1.67;;
20846;SDS011;10584;50.854;12.902;2023-04-03T02:40:10;5.03;;;1.40;;
20846;SDS011;10584;50.854;12.902;2023-04-03T02:45:31;7.00;;;1.57;;
20846;SDS011;10584;50.854;12.902;2023-04-03T02:50:53;5.43;;;1.60;;
20846;SDS011;10584;50.854;12.902;2023-04-03T02:56:14;6.03;;;1.27;;
20846;SDS011;10584;50.854;12.902;2023-04-03T03:01:36;6.53;;;1.67;;
20846;SDS011;10584;50.854;12.902;2023-04-03T03:06:57;10.30;;;1.87;;
20846;SDS011;10584;50.854;12.902;2023-04-03T03:12:19;10.37;;;1.90;;
20846;SDS011;10584;50.854;12.902;2023-04-03T03:17:42;8.20;;;1.50;;
20846;SDS011;10584;50.854;12.902;2023-04-03T03:23:04;11.87;;;1.70;;
20846;SDS011;10584;50.854;12.902;2023-04-03T03:28:26;7.33;;;1.43;;
20846;SDS011;10584;50.854;12.902;2023-04-03T03:33:48;6.20;;;1.73;;
20846;SDS011;10584;50.854;12.902;2023-04-03T03:39:10;6.17;;;1.93;;
20846;SDS011;10584;50.854;12.902;2023-04-03T03:44:31;6.37;;;1.70;;
20846;SDS011;10584;50.854;12.902;2023-04-03T03:49:53;4.20;;;1.53;;
20846;SDS011;10584;50.854;12.902;2023-04-03T03:55:15;7.43;;;1.83;;
20846;SDS011;10584;50.854;12.902;2023-04-03T04:00:40;9.63;;;1.93;;
20846;SDS011;10584;50.854;12.902;2023-04-03T04:06:02;5.17;;;1.97;;
20846;SDS011;10584;50.854;12.902;2023-04-03T04:11:23;3.87;;;1.43;;
20846;SDS011;10584;50.854;12.902;2023-04-03T04:16:47;6.50;;;1.87;;
20846;SDS011;10584;50.854;12.902;2023-04-03T04:22:17;8.17;;;2.10;;
20846;SDS011;10584;50.854;12.902;2023-04-03T04:27:38;6.17;;;1.80;;
20846;SDS011;10584;50.854;12.902;2023-04-03T04:33:01;4.00;;;1.70;;
20846;SDS011;10584;50.854;12.902;2023-04-03T04:38:25;4.17;;;1.63;;
20846;SDS011;10584;50.854;12.902;2023-04-03T04:43:50;5.67;;;1.70;;
20846;SDS011;10584;50.854;12.902;2023-04-03T04:49:13;11.87;;;1.93;;
20846;SDS011;10584;50.854;12.902;2023-04-03T04:54:35;5.30;;;2.10;;
20846;SDS011;10584;50.854;12.902;2023-04-03T04:59:57;4.60;;;2.10;;
20846;SDS011;10584;50.854;12.902;2023-04-03T05:05:18;6.47;;;1.90;;
20846;SDS011;10584;50.854;12.902;2023-04-03T05:10:40;7.57;;;1.73;;
20846;SDS011;10584;50.854;12.902;2023-04-03T05:16:04;5.50;;;1.90;;
20846;SDS011;10584;50.854;12.902;2023-04-03T05:21:27;6.73;;;1.70;;
20846;SDS011;10584;50.854;12.902;2023-04-03T05:26:56;5.47;;;1.77;;
20846;SDS011;10584;50.854;12.902;2023-04-03T05:32:19;6.43;;;1.97;;
20846;SDS011;10584;50.854;12.902;2023-04-03T05:37:46;7.73;;;2.10;;
20846;SDS011;10584;50.854;12.902;2023-04-03T05:43:09;10.90;;;1.80;;
20846;SDS011;10584;50.854;12.902;2023-04-03T05:48:33;9.43;;;1.93;;
20846;SDS011;10584;50.854;12.902;2023-04-03T05:53:58;8.80;;;1.60;;
20846;SDS011;10584;50.854;12.902;2023-04-03T05:59:41;4.73;;;2.03;;
20846;SDS011;10584;50.854;12.902;2023-04-03T06:05:04;6.57;;;1.97;;
20846;SDS011;10584;50.854;12.902;2023-04-03T06:10:28;7.83;;;2.17;;
20846;SDS011;10584;50.854;12.902;2023-04-03T06:15:50;6.97;;;1.70;;
20846;SDS011;10584;50.854;12.902;2023-04-03T06:21:11;5.23;;;1.70;;
20846;SDS011;10584;50.854;12.902;2023-04-03T06:26:34;6.13;;;1.90;;
20846;SDS011;10584;50.854;12.902;2023-04-03T06:31:55;6.67;;;2.10;;
20846;SDS011;10584;50.854;12.902;2023-04-03T06:37:17;7.50;;;2.20;;
20846;SDS011;10584;50.854;12.902;2023-04-03T06:42:41;10.13;;;2.50;;
20846;SDS011;10584;50.854;12.902;2023-04-03T06:48:05;14.33;;;3.00;;
20846;SDS011;10584;50.854;12.902;2023-04-03T06:53:26;5.70;;;2.33;;
20846;SDS011;10584;50.854;12.902;2023-04-03T06:58:48;7.33;;;2.50;;
20846;SDS011;10584;50.854;12.902;2023-04-03T07:04:10;7.00;;;2.77;;
20846;SDS011;10584;50.854;12.902;2023-04-03T07:09:32;10.10;;;3.17;;
20846;SDS011;10584;50.854;12.902;2023-04-03T07:14:54;9.07;;;3.03;;
20846;SDS011;10584;50.854;12.902;2023-04-03T07:20:15;5.87;;;1.80;;
20846;SDS011;10584;50.854;12.902;2023-04-03T07:25:42;8.53;;;3.90;;
20846;SDS011;10584;50.854;12.902;2023-04-03T07:31:08;11.53;;;3.80;;
20846;SDS011;10584;50.854;12.902;2023-04-03T07:36:33;10.97;;;4.10;;
20846;SDS011;10584;50.854;12.902;2023-04-03T07:41:56;7.87;;;3.53;;
20846;SDS011;10584;50.854;12.902;2023-04-03T07:47:18;7.67;;;3.57;;
20846;SDS011;10584;50.854;12.902;2023-04-03T07:52:40;8.10;;;3.67;;
20846;SDS011;10584;50.854;12.902;2023-04-03T07:58:01;12.13;;;4.40;;
20846;SDS011;10584;50.854;12.902;2023-04-03T08:03:23;8.97;;;3.90;;
20846;SDS011;10584;50.854;12.902;2023-04-03T08:08:45;10.53;;;3.97;;
20846;SDS011;10584;50.854;12.902;2023-04-03T08:14:07;8.93;;;4.07;;
20846;SDS011;10584;50.854;12.902;2023-04-03T08:19:31;12.37;;;4.50;;
20846;SDS011;10584;50.854;12.902;2023-04-03T08:24:52;11.90;;;4.00;;
20846;SDS011;10584;50.854;12.902;2023-04-03T08:30:18;8.23;;;4.20;;
20846;SDS011;10584;50.854;12.902;2023-04-03T08:35:40;8.13;;;4.00;;
20846;SDS011;10584;50.854;12.902;2023-04-03T08:41:14;8.47;;;4.07;;
20846;SDS011;10584;50.854;12.902;2023-04-03T08:52:37;8.80;;;3.80;;
20846;SDS011;10584;50.854;12.902;2023-04-03T09:03:49;8.50;;;3.47;;
20846;SDS011;10584;50.854;12.902;2023-04-03T09:15:10;9.33;;;3.57;;
20846;SDS011;10584;50.854;12.902;2023-04-03T09:21:03;10.03;;;3.60;;
20846;SDS011;10584;50.854;12.902;2023-04-03T09:26:36;8.20;;;3.03;;
20846;SDS011;10584;50.854;12.902;2023-04-03T09:37:58;13.67;;;3.53;;
20846;SDS011;10584;50.854;12.902;2023-04-03T09:43:30;6.03;;;3.20;;
20846;SDS011;10584;50.854;12.902;2023-04-03T09:49:00;6.47;;;2.50;;
20846;SDS011;10584;50.854;12.902;2023-04-03T09:54:36;7.93;;;3.10;;
20846;SDS011;10584;50.854;12.902;2023-04-03T10:00:00;6.70;;;2.90;;
20846;SDS011;10584;50.854;12.902;2023-04-03T10:05:30;6.10;;;2.70;;
20846;SDS011;10584;50.854;12.902;2023-04-03T10:11:07;7.27;;;2.80;;
20846;SDS011;10584;50.854;12.902;2023-04-03T10:16:48;7.10;;;3.03;;
20846;SDS011;10584;50.854;12.902;2023-04-03T10:28:06;9.07;;;2.80;;
20846;SDS011;10584;50.854;12.902;2023-04-03T10:39:24;5.60;;;2.67;;
20846;SDS011;10584;50.854;12.902;2023-04-03T10:45:29;7.10;;;2.30;;
20846;SDS011;10584;50.854;12.902;2023-04-03T10:56:40;8.67;;;2.40;;
20846;SDS011;10584;50.854;12.902;2023-04-03T11:08:29;5.87;;;1.83;;
20846;SDS011;10584;50.854;12.902;2023-04-03T11:14:17;5.30;;;2.10;;
20846;SDS011;10584;50.854;12.902;2023-04-03T11:25:37;5.07;;;1.60;;
20846;SDS011;10584;50.854;12.902;2023-04-03T11:36:58;4.57;;;1.63;;
20846;SDS011;10584;50.854;12.902;2023-04-03T11:42:47;6.57;;;1.53;;
20846;SDS011;10584;50.854;12.902;2023-04-03T11:53:51;6.60;;;1.60;;
20846;SDS011;10584;50.854;12.902;2023-04-03T12:04:38;4.63;;;1.50;;
20846;SDS011;10584;50.854;12.902;2023-04-03T12:10:22;2.87;;;1.23;;
20846;SDS011;10584;50.854;12.902;2023-04-03T12:15:51;5.70;;;1.53;;
20846;SDS011;10584;50.854;12.902;2023-04-03T12:21:14;2.43;;;1.00;;
20846;SDS011;10584;50.854;12.902;2023-04-03T12:26:44;3.20;;;1.30;;
20846;SDS011;10584;50.854;12.902;2023-04-03T12:50:13;3.07;;;1.20;;
20846;SDS011;10584;50.854;12.902;2023-04-03T12:55:44;3.73;;;1.30;;
20846;SDS011;10584;50.854;12.902;2023-04-03T13:01:18;4.53;;;1.40;;
20846;SDS011;10584;50.854;12.902;2023-04-03T13:06:43;3.97;;;1.30;;
20846;SDS011;10584;50.854;12.902;2023-04-03T13:17:33;4.73;;;1.30;;
20846;SDS011;10584;50.854;12.902;2023-04-03T13:23:05;5.13;;;1.43;;
20846;SDS011;10584;50.854;12.902;2023-04-03T13:28:29;2.20;;;1.00;;
20846;SDS011;10584;50.854;12.902;2023-04-03T13:33:53;9.00;;;1.50;;
20846;SDS011;10584;50.854;12.902;2023-04-03T13:39:32;4.43;;;1.07;;
20846;SDS011;10584;50.854;12.902;2023-04-03T13:56:20;2.27;;;1.43;;
20846;SDS011;10584;50.854;12.902;2023-04-03T14:01:51;2.67;;;1.23;;
20846;SDS011;10584;50.854;12.902;2023-04-03T14:07:22;12.67;;;3.63;;
20846;SDS011;10584;50.854;12.902;2023-04-03T14:12:44;4.67;;;1.60;;
20846;SDS011;10584;50.854;12.902;2023-04-03T14:18:06;2.83;;;1.30;;
20846;SDS011;10584;50.854;12.902;2023-04-03T14:23:30;5.30;;;1.20;;
20846;SDS011;10584;50.854;12.902;2023-04-03T14:28:53;2.73;;;1.47;;
20846;SDS011;10584;50.854;12.902;2023-04-03T14:34:16;2.53;;;1.30;;
20846;SDS011;10584;50.854;12.902;2023-04-03T14:39:37;5.47;;;1.90;;
20846;SDS011;10584;50.854;12.902;2023-04-03T14:44:59;4.60;;;1.57;;
20846;SDS011;10584;50.854;12.902;2023-04-03T14:50:26;1.90;;;1.30;;
20846;SDS011;10584;50.854;12.902;2023-04-03T14:55:48;4.10;;;1.50;;
20846;SDS011;10584;50.854;12.902;2023-04-03T15:01:10;5.30;;;1.47;;
20846;SDS011;10584;50.854;12.902;2023-04-03T15:06:34;4.93;;;1.60;;
20846;SDS011;10584;50.854;12.902;2023-04-03T15:11:55;7.13;;;1.93;;
20846;SDS011;10584;50.854;12.902;2023-04-03T15:17:19;5.67;;;2.20;;
20846;SDS011;10584;50.854;12.902;2023-04-03T15:22:42;7.93;;;2.10;;
20846;SDS011;10584;50.854;12.902;2023-04-03T15:28:04;3.00;;;1.57;;
20846;SDS011;10584;50.854;12.902;2023-04-03T15:33:26;5.80;;;1.70;;
20846;SDS011;10584;50.854;12.902;2023-04-03T15:38:47;5.23;;;1.70;;
20846;SDS011;10584;50.854;12.902;2023-04-03T15:44:09;6.27;;;1.60;;
20846;SDS011;10584;50.854;12.902;2023-04-03T15:49:32;4.37;;;1.60;;
20846;SDS011;10584;50.854;12.902;2023-04-03T15:54:54;5.73;;;1.53;;
20846;SDS011;10584;50.854;12.902;2023-04-03T16:00:15;3.80;;;1.57;;
20846;SDS011;10584;50.854;12.902;2023-04-03T16:05:37;5.60;;;1.53;;
20846;SDS011;10584;50.854;12.902;2023-04-03T16:10:59;4.90;;;1.50;;
20846;SDS011;10584;50.854;12.902;2023-04-03T16:16:21;4.07;;;1.40;;
20846;SDS011;10584;50.854;12.902;2023-04-03T16:21:44;2.87;;;1.30;;
20846;SDS011;10584;50.854;12.902;2023-04-03T16:27:06;2.80;;;1.30;;
20846;SDS011;10584;50.854;12.902;2023-04-03T16:32:29;4.20;;;1.47;;
20846;SDS011;10584;50.854;12.902;2023-04-03T16:37:51;2.97;;;1.20;;
20846;SDS011;10584;50.854;12.902;2023-04-03T16:43:13;6.07;;;1.50;;
20846;SDS011;10584;50.854;12.902;2023-04-03T16:48:34;6.20;;;1.60;;
20846;SDS011;10584;50.854;12.902;2023-04-03T16:53:56;3.13;;;1.43;;
20846;SDS011;10584;50.854;12.902;2023-04-03T16:59:18;4.07;;;1.37;;
20846;SDS011;10584;50.854;12.902;2023-04-03T17:04:39;2.80;;;1.40;;
20846;SDS011;10584;50.854;12.902;2023-04-03T17:10:01;5.90;;;1.60;;
20846;SDS011;10584;50.854;12.902;2023-04-03T17:15:23;3.77;;;1.50;;
20846;SDS011;10584;50.854;12.902;2023-04-03T17:20:45;5.40;;;1.40;;
20846;SDS011;10584;50.854;12.902;2023-04-03T17:26:06;7.83;;;1.30;;
20846;SDS011;10584;50.854;12.902;2023-04-03T17:31:28;2.90;;;1.20;;
20846;SDS011;10584;50.854;12.902;2023-04-03T17:36:49;2.07;;;1.27;;
20846;SDS011;10584;50.854;12.902;2023-04-03T17:42:11;1.97;;;1.27;;
20846;SDS011;10584;50.854;12.902;2023-04-03T17:47:32;4.50;;;1.63;;
20846;SDS011;10584;50.854;12.902;2023-04-03T17:52:54;2.97;;;1.40;;
20846;SDS011;10584;50.854;12.902;2023-04-03T17:58:16;3.73;;;1.73;;
20846;SDS011;10584;50.854;12.902;2023-04-03T18:03:37;2.27;;;1.33;;
20846;SDS011;10584;50.854;12.902;2023-04-03T18:09:03;4.03;;;1.30;;
20846;SDS011;10584;50.854;12.902;2023-04-03T18:14:34;3.40;;;1.30;;
20846;SDS011;10584;50.854;12.902;2023-04-03T18:19:58;5.03;;;1.73;;
20846;SDS011;10584;50.854;12.902;2023-04-03T18:25:19;2.53;;;1.40;;
20846;SDS011;10584;50.854;12.902;2023-04-03T18:30:41;6.63;;;1.53;;
20846;SDS011;10584;50.854;12.902;2023-04-03T18:36:03;3.97;;;1.40;;
20846;SDS011;10584;50.854;12.902;2023-04-03T18:41:26;4.53;;;1.23;;
20846;SDS011;10584;50.854;12.902;2023-04-03T18:46:50;4.93;;;1.70;;
20846;SDS011;10584;50.854;12.902;2023-04-03T18:52:13;3.53;;;1.40;;
20846;SDS011;10584;50.854;12.902;2023-04-03T18:57:35;3.93;;;1.53;;
20846;SDS011;10584;50.854;12.902;2023-04-03T19:02:56;2.73;;;1.53;;
20846;SDS011;10584;50.854;12.902;2023-04-03T19:08:18;2.53;;;1.30;;
20846;SDS011;10584;50.854;12.902;2023-04-03T19:13:40;4.83;;;1.57;;
20846;SDS011;10584;50.854;12.902;2023-04-03T19:19:21;2.83;;;1.60;;
20846;SDS011;10584;50.854;12.902;2023-04-03T19:24:43;5.97;;;1.73;;
20846;SDS011;10584;50.854;12.902;2023-04-03T19:30:05;4.00;;;1.60;;
20846;SDS011;10584;50.854;12.902;2023-04-03T19:35:28;3.77;;;1.60;;
20846;SDS011;10584;50.854;12.902;2023-04-03T19:40:50;6.23;;;1.70;;
20846;SDS011;10584;50.854;12.902;2023-04-03T19:46:12;4.07;;;1.90;;
20846;SDS011;10584;50.854;12.902;2023-04-03T19:51:33;4.10;;;2.40;;
20846;SDS011;10584;50.854;12.902;2023-04-03T19:56:55;5.83;;;2.10;;
20846;SDS011;10584;50.854;12.902;2023-04-03T20:02:17;3.40;;;2.00;;
20846;SDS011;10584;50.854;12.902;2023-04-03T20:07:40;4.97;;;2.20;;
20846;SDS011;10584;50.854;12.902;2023-04-03T20:13:02;4.93;;;2.23;;
20846;SDS011;10584;50.854;12.902;2023-04-03T20:18:27;6.87;;;2.87;;
20846;SDS011;10584;50.854;12.902;2023-04-03T20:23:49;7.93;;;3.10;;
20846;SDS011;10584;50.854;12.902;2023-04-03T20:29:11;6.30;;;2.83;;
20846;SDS011;10584;50.854;12.902;2023-04-03T20:34:35;7.90;;;3.00;;
20846;SDS011;10584;50.854;12.902;2023-04-03T20:39:57;7.33;;;3.07;;
20846;SDS011;10584;50.854;12.902;2023-04-03T20:45:18;7.10;;;2.83;;
20846;SDS011;10584;50.854;12.902;2023-04-03T20:50:40;5.73;;;2.60;;
20846;SDS011;10584;50.854;12.902;2023-04-03T20:56:02;5.87;;;3.10;;
20846;SDS011;10584;50.854;12.902;2023-04-03T21:01:24;7.83;;;3.27;;
20846;SDS011;10584;50.854;12.902;2023-04-03T21:24:35;14.80;;;5.57;;
20846;SDS011;10584;50.854;12.902;2023-04-03T21:29:57;11.53;;;5.07;;
20846;SDS011;10584;50.854;12.902;2023-04-03T21:35:19;10.20;;;4.90;;
20846;SDS011;10584;50.854;12.902;2023-04-03T21:40:40;8.27;;;3.83;;
20846;SDS011;10584;50.854;12.902;2023-04-03T21:46:05;7.07;;;3.60;;
20846;SDS011;10584;50.854;12.902;2023-04-03T21:51:27;7.97;;;3.47;;
20846;SDS011;10584;50.854;12.902;2023-04-03T21:56:49;7.90;;;3.47;;
20846;SDS011;10584;50.854;12.902;2023-04-03T22:02:13;8.67;;;3.60;;
20846;SDS011;10584;50.854;12.902;2023-04-03T22:07:34;7.30;;;3.20;;
20846;SDS011;10584;50.854;12.902;2023-04-03T22:12:56;7.57;;;3.30;;
20846;SDS011;10584;50.854;12.902;2023-04-03T22:18:18;7.63;;;3.37;;
20846;SDS011;10584;50.854;12.902;2023-04-03T22:23:39;8.47;;;3.17;;
20846;SDS011;10584;50.854;12.902;2023-04-03T22:29:01;6.73;;;3.17;;
20846;SDS011;10584;50.854;12.902;2023-04-03T22:34:23;9.73;;;3.63;;
20846;SDS011;10584;50.854;12.902;2023-04-03T22:39:45;9.03;;;3.47;;
20846;SDS011;10584;50.854;12.902;2023-04-03T22:45:07;6.23;;;3.13;;
20846;SDS011;10584;50.854;12.902;2023-04-03T22:50:28;7.23;;;3.00;;
20846;SDS011;10584;50.854;12.902;2023-04-03T23:01:17;9.30;;;3.73;;
20846;SDS011;10584;50.854;12.902;2023-04-03T23:06:39;6.80;;;3.17;;
20846;SDS011;10584;50.854;12.902;2023-04-03T23:12:00;7.40;;;3.60;;
20846;SDS011;10584;50.854;12.902;2023-04-03T23:17:22;7.60;;;3.33;;
20846;SDS011;10584;50.854;12.902;2023-04-03T23:22:43;7.33;;;3.60;;
20846;SDS011;10584;50.854;12.902;2023-04-03T23:28:05;9.40;;;3.77;;
20846;SDS011;10584;50.854;12.902;2023-04-03T23:33:27;9.87;;;3.80;;
20846;SDS011;10584;50.854;12.902;2023-04-03T23:38:50;8.27;;;3.83;;
20846;SDS011;10584;50.854;12.902;2023-04-03T23:44:14;7.77;;;3.77;;
20846;SDS011;10584;50.854;12.902;2023-04-03T23:49:36;7.80;;;3.90;;
20846;SDS011;10584;50.854;12.902;2023-04-03T23:54:58;10.70;;;4.07;;
